createdAt,value
2018-09-09T00:00:18.692Z,58.97
2018-09-09T00:01:23.111Z,59.09
2018-09-09T00:02:27.274Z,59.60
2018-09-09T00:03:31.414Z,59.21
2018-09-09T00:04:35.580Z,59.27
2018-09-09T00:05:39.768Z,58.87
2018-09-09T00:06:44.073Z,58.95
2018-09-09T00:07:48.272Z,59.07
2018-09-09T00:08:52.633Z,59.65
2018-09-09T00:09:56.787Z,59.45
2018-09-09T00:11:01.000Z,59.94
2018-09-09T00:12:05.330Z,59.64
2018-09-09T00:13:09.554Z,59.60
2018-09-09T00:14:13.761Z,59.86
2018-09-09T00:15:17.894Z,60.13
2018-09-09T00:16:22.103Z,60.41
2018-09-09T00:17:26.274Z,60.23
2018-09-09T00:18:30.455Z,60.36
2018-09-09T00:19:34.614Z,59.53
2018-09-09T00:20:38.803Z,59.70
2018-09-09T00:21:42.951Z,60.33
2018-09-09T00:22:47.081Z,59.86
2018-09-09T00:23:51.519Z,60.32
2018-09-09T00:24:56.069Z,59.98
2018-09-09T00:26:00.247Z,59.81
2018-09-09T00:27:04.746Z,59.36
2018-09-09T00:28:08.893Z,60.35
2018-09-09T00:29:13.124Z,60.17
2018-09-09T00:30:17.268Z,60.20
2018-09-09T00:31:21.426Z,60.24
2018-09-09T00:32:25.760Z,60.46
2018-09-09T00:33:29.955Z,59.69
2018-09-09T00:34:34.170Z,59.96
2018-09-09T00:35:41.140Z,60.27
2018-09-09T00:36:45.344Z,60.09
2018-09-09T00:37:49.489Z,60.55
2018-09-09T00:38:53.784Z,60.11
2018-09-09T00:39:57.932Z,60.20
2018-09-09T00:41:02.224Z,60.42
2018-09-09T00:42:06.361Z,60.45
2018-09-09T00:43:10.548Z,60.80
2018-09-09T00:44:14.705Z,60.76
2018-09-09T00:45:19.051Z,61.09
2018-09-09T00:46:23.212Z,60.40
2018-09-09T00:47:27.396Z,60.64
2018-09-09T00:48:31.525Z,61.19
2018-09-09T00:49:40.961Z,61.25
2018-09-09T00:50:50.289Z,60.92
2018-09-09T00:51:59.680Z,61.07
2018-09-09T00:53:09.204Z,60.77
2018-09-09T00:54:13.430Z,61.33
2018-09-09T00:55:17.586Z,61.11
2018-09-09T00:56:21.810Z,60.76
2018-09-09T00:57:26.090Z,61.41
2018-09-09T00:58:30.242Z,61.28
2018-09-09T00:59:34.417Z,60.98
2018-09-09T01:00:44.034Z,61.30
2018-09-09T01:01:48.272Z,61.33
2018-09-09T01:02:52.509Z,61.05
2018-09-09T01:03:56.653Z,61.81
2018-09-09T01:05:00.793Z,61.09
2018-09-09T01:06:04.969Z,61.75
2018-09-09T01:07:09.186Z,61.55
2018-09-09T01:08:13.407Z,61.60
2018-09-09T01:09:17.581Z,61.62
2018-09-09T01:10:21.845Z,62.00
2018-09-09T01:11:26.066Z,61.99
2018-09-09T01:12:30.328Z,61.53
2018-09-09T01:13:34.480Z,62.41
2018-09-09T01:14:38.738Z,61.89
2018-09-09T01:15:43.107Z,61.81
2018-09-09T01:16:47.285Z,62.30
2018-09-09T01:17:51.471Z,62.44
2018-09-09T01:18:55.618Z,62.20
2018-09-09T01:19:59.786Z,62.11
2018-09-09T01:21:03.968Z,62.18
2018-09-09T01:22:08.280Z,62.45
2018-09-09T01:23:12.501Z,62.91
2018-09-09T01:24:16.652Z,62.68
2018-09-09T01:25:21.010Z,62.53
2018-09-09T01:26:25.180Z,62.98
2018-09-09T01:27:29.305Z,62.75
2018-09-09T01:28:33.585Z,62.95
2018-09-09T01:29:37.718Z,63.18
2018-09-09T01:30:41.999Z,63.06
2018-09-09T01:31:46.141Z,62.83
2018-09-09T01:32:50.302Z,63.28
2018-09-09T01:33:54.515Z,63.60
2018-09-09T01:34:58.666Z,63.99
2018-09-09T01:36:02.983Z,63.80
2018-09-09T01:37:07.191Z,63.49
2018-09-09T01:38:11.443Z,63.65
2018-09-09T01:39:15.613Z,63.64
2018-09-09T01:40:19.812Z,63.27
2018-09-09T01:41:24.109Z,63.48
2018-09-09T01:42:28.246Z,63.46
2018-09-09T01:43:32.498Z,63.32
2018-09-09T01:44:36.722Z,63.24
2018-09-09T01:45:40.887Z,63.52
2018-09-09T01:46:45.028Z,63.62
2018-09-09T01:47:49.229Z,63.16
2018-09-09T01:48:53.409Z,63.02
2018-09-09T01:49:57.585Z,63.30
2018-09-09T01:51:01.784Z,63.39
2018-09-09T01:52:05.995Z,63.74
2018-09-09T01:53:10.536Z,63.14
2018-09-09T01:54:14.690Z,63.58
2018-09-09T01:55:18.913Z,63.21
2018-09-09T01:56:23.062Z,63.50
2018-09-09T01:57:27.208Z,63.59
2018-09-09T01:58:31.355Z,63.05
2018-09-09T01:59:35.502Z,63.42
2018-09-09T02:00:39.868Z,63.84
2018-09-09T02:01:44.052Z,63.26
2018-09-09T02:02:48.783Z,63.32
2018-09-09T02:03:52.937Z,63.85
2018-09-09T02:04:57.106Z,63.32
2018-09-09T02:06:01.335Z,63.23
2018-09-09T02:07:05.521Z,63.58
2018-09-09T02:08:09.902Z,63.21
2018-09-09T02:09:14.094Z,63.64
2018-09-09T02:10:18.284Z,63.05
2018-09-09T02:11:22.447Z,63.56
2018-09-09T02:12:26.633Z,62.71
2018-09-09T02:13:31.924Z,63.08
2018-09-09T02:14:36.161Z,62.56
2018-09-09T02:15:40.309Z,62.91
2018-09-09T02:16:44.529Z,62.95
2018-09-09T02:17:48.687Z,63.24
2018-09-09T02:18:52.872Z,63.02
2018-09-09T02:19:57.052Z,63.09
2018-09-09T02:21:01.225Z,62.35
2018-09-09T02:22:05.475Z,62.20
2018-09-09T02:23:09.637Z,62.53
2018-09-09T02:24:13.806Z,62.37
2018-09-09T02:25:18.003Z,61.95
2018-09-09T02:26:22.461Z,62.29
2018-09-09T02:27:26.739Z,62.38
2018-09-09T02:28:31.094Z,62.38
2018-09-09T02:29:35.261Z,62.28
2018-09-09T02:30:39.452Z,61.92
2018-09-09T02:31:43.637Z,62.05
2018-09-09T02:32:47.852Z,62.12
2018-09-09T02:33:52.209Z,62.16
2018-09-09T02:34:56.410Z,61.44
2018-09-09T02:36:00.596Z,61.79
2018-09-09T02:37:04.814Z,61.41
2018-09-09T02:38:09.075Z,61.90
2018-09-09T02:39:13.222Z,61.59
2018-09-09T02:40:17.369Z,61.90
2018-09-09T02:41:21.560Z,61.66
2018-09-09T02:42:25.728Z,61.18
2018-09-09T02:43:29.913Z,61.35
2018-09-09T02:44:34.469Z,61.03
2018-09-09T02:45:38.611Z,61.15
2018-09-09T02:46:42.743Z,60.82
2018-09-09T02:47:46.890Z,60.65
2018-09-09T02:48:51.074Z,60.71
2018-09-09T02:49:55.350Z,60.84
2018-09-09T02:50:59.500Z,60.61
2018-09-09T02:52:03.656Z,61.13
2018-09-09T02:53:07.797Z,61.26
2018-09-09T02:54:11.980Z,61.44
2018-09-09T02:55:16.105Z,61.16
2018-09-09T02:56:20.280Z,61.21
2018-09-09T02:57:24.444Z,61.65
2018-09-09T02:58:28.774Z,61.67
2018-09-09T02:59:32.992Z,61.80
2018-09-09T03:00:37.155Z,61.06
2018-09-09T03:01:41.290Z,61.81
2018-09-09T03:02:45.482Z,60.95
2018-09-09T03:03:49.623Z,61.61
2018-09-09T03:04:53.819Z,61.00
2018-09-09T03:05:57.956Z,61.21
2018-09-09T03:07:02.136Z,61.41
2018-09-09T03:08:06.711Z,61.70
2018-09-09T03:09:10.887Z,61.24
2018-09-09T03:10:15.246Z,62.20
2018-09-09T03:11:19.405Z,61.56
2018-09-09T03:12:23.620Z,61.76
2018-09-09T03:13:27.783Z,61.29
2018-09-09T03:14:31.964Z,60.91
2018-09-09T03:15:36.475Z,61.44
2018-09-09T03:16:40.989Z,61.09
2018-09-09T03:17:45.107Z,60.60
2018-09-09T03:18:49.399Z,61.17
2018-09-09T03:19:53.775Z,61.16
2018-09-09T03:20:58.120Z,61.40
2018-09-09T03:22:02.321Z,60.95
2018-09-09T03:23:06.835Z,61.27
2018-09-09T03:24:11.016Z,61.31
2018-09-09T03:25:15.245Z,60.95
2018-09-09T03:26:19.419Z,60.57
2018-09-09T03:27:23.897Z,60.81
2018-09-09T03:28:28.065Z,61.55
2018-09-09T03:29:32.231Z,60.60
2018-09-09T03:30:36.429Z,60.90
2018-09-09T03:31:40.680Z,61.32
2018-09-09T03:32:44.999Z,61.35
2018-09-09T03:33:49.154Z,61.04
2018-09-09T03:34:53.807Z,61.53
2018-09-09T03:35:57.931Z,61.03
2018-09-09T03:37:02.319Z,60.82
2018-09-09T03:38:06.484Z,61.15
2018-09-09T03:39:10.936Z,60.82
2018-09-09T03:40:15.280Z,60.88
2018-09-09T03:41:19.653Z,61.19
2018-09-09T03:42:23.962Z,61.22
2018-09-09T03:43:28.273Z,60.70
2018-09-09T03:44:32.405Z,61.36
2018-09-09T03:45:36.546Z,61.03
2018-09-09T03:46:40.723Z,60.89
2018-09-09T03:47:44.926Z,61.22
2018-09-09T03:48:49.131Z,61.17
2018-09-09T03:49:53.659Z,61.06
2018-09-09T03:50:57.863Z,61.23
2018-09-09T03:52:02.056Z,61.19
2018-09-09T03:53:06.537Z,61.93
2018-09-09T03:54:10.709Z,61.62
2018-09-09T03:55:14.867Z,61.05
2018-09-09T03:56:19.043Z,61.76
2018-09-09T03:57:23.179Z,61.33
2018-09-09T03:58:27.425Z,61.01
2018-09-09T03:59:31.652Z,61.52
2018-09-09T04:00:35.959Z,61.24
2018-09-09T04:01:40.135Z,61.49
2018-09-09T04:02:44.322Z,61.51
2018-09-09T04:03:48.846Z,61.50
2018-09-09T04:04:53.010Z,61.86
2018-09-09T04:05:57.697Z,61.72
2018-09-09T04:07:02.214Z,61.76
2018-09-09T04:08:06.358Z,62.00
2018-09-09T04:09:11.038Z,61.35
2018-09-09T04:10:15.293Z,61.48
2018-09-09T04:11:19.413Z,61.99
2018-09-09T04:12:27.269Z,61.56
2018-09-09T04:13:31.399Z,61.21
2018-09-09T04:14:35.584Z,61.60
2018-09-09T04:15:39.799Z,61.96
2018-09-09T04:16:43.950Z,61.54
2018-09-09T04:17:48.156Z,61.27
2018-09-09T04:18:52.464Z,62.02
2018-09-09T04:19:56.630Z,61.46
2018-09-09T04:21:00.862Z,61.58
2018-09-09T04:22:05.006Z,62.10
2018-09-09T04:23:09.198Z,61.68
2018-09-09T04:24:13.451Z,62.36
2018-09-09T04:25:17.678Z,62.40
2018-09-09T04:26:21.899Z,62.31
2018-09-09T04:27:26.373Z,61.89
2018-09-09T04:28:30.665Z,62.24
2018-09-09T04:29:34.925Z,62.07
2018-09-09T04:30:39.114Z,62.28
2018-09-09T04:31:43.285Z,62.12
2018-09-09T04:32:47.445Z,62.33
2018-09-09T04:33:51.587Z,62.89
2018-09-09T04:34:55.763Z,62.41
2018-09-09T04:35:59.985Z,62.47
2018-09-09T04:37:04.421Z,62.21
2018-09-09T04:38:08.577Z,62.23
2018-09-09T04:39:14.131Z,62.76
2018-09-09T04:40:18.278Z,63.01
2018-09-09T04:41:22.458Z,62.85
2018-09-09T04:42:26.615Z,62.40
2018-09-09T04:43:30.744Z,62.99
2018-09-09T04:44:34.919Z,62.37
2018-09-09T04:45:39.107Z,62.93
2018-09-09T04:46:43.418Z,62.82
2018-09-09T04:47:47.998Z,62.54
2018-09-09T04:48:52.260Z,62.38
2018-09-09T04:49:56.581Z,62.67
2018-09-09T04:51:00.810Z,62.59
2018-09-09T04:52:04.984Z,63.08
2018-09-09T04:53:09.150Z,62.14
2018-09-09T04:54:13.287Z,63.23
2018-09-09T04:55:17.447Z,63.12
2018-09-09T04:56:21.995Z,62.56
2018-09-09T04:57:26.163Z,62.33
2018-09-09T04:58:30.327Z,62.86
2018-09-09T04:59:35.571Z,63.17
2018-09-09T05:00:39.788Z,62.46
2018-09-09T05:01:44.162Z,62.85
2018-09-09T05:02:48.510Z,62.54
2018-09-09T05:03:52.675Z,62.98
2018-09-09T05:04:57.260Z,63.13
2018-09-09T05:06:01.436Z,62.90
2018-09-09T05:07:05.650Z,62.84
2018-09-09T05:08:10.405Z,63.35
2018-09-09T05:09:14.598Z,62.45
2018-09-09T05:10:18.897Z,62.48
2018-09-09T05:11:23.063Z,62.87
2018-09-09T05:12:27.189Z,63.13
2018-09-09T05:13:31.365Z,62.60
2018-09-09T05:14:35.545Z,63.15
2018-09-09T05:15:39.747Z,63.19
2018-09-09T05:16:43.897Z,62.49
2018-09-09T05:17:48.046Z,62.40
2018-09-09T05:18:52.410Z,62.60
2018-09-09T05:19:56.557Z,62.79
2018-09-09T05:21:00.695Z,62.95
2018-09-09T05:22:04.919Z,62.69
2018-09-09T05:23:09.276Z,63.12
2018-09-09T05:24:13.514Z,62.34
2018-09-09T05:25:17.660Z,62.37
2018-09-09T05:26:22.047Z,62.62
2018-09-09T05:27:26.581Z,62.82
2018-09-09T05:28:30.814Z,63.62
2018-09-09T05:29:35.028Z,63.03
2018-09-09T05:30:39.327Z,62.59
2018-09-09T05:31:43.493Z,62.77
2018-09-09T05:32:47.840Z,62.61
2018-09-09T05:33:52.248Z,62.88
2018-09-09T05:34:56.413Z,63.18
2018-09-09T05:36:00.762Z,63.44
2018-09-09T05:37:05.327Z,63.12
2018-09-09T05:38:09.499Z,63.75
2018-09-09T05:39:13.691Z,63.85
2018-09-09T05:40:17.955Z,63.46
2018-09-09T05:41:22.161Z,63.13
2018-09-09T05:42:26.523Z,63.25
2018-09-09T05:43:30.732Z,63.58
2018-09-09T05:44:34.900Z,63.02
2018-09-09T05:45:39.113Z,63.46
2018-09-09T05:46:43.355Z,63.43
2018-09-09T05:47:47.564Z,63.41
2018-09-09T05:48:51.838Z,63.12
2018-09-09T05:49:56.002Z,63.31
2018-09-09T05:51:00.178Z,63.46
2018-09-09T05:52:04.385Z,63.49
2018-09-09T05:53:08.518Z,63.23
2018-09-09T05:54:12.670Z,62.88
2018-09-09T05:55:16.870Z,63.31
2018-09-09T05:56:21.102Z,62.99
2018-09-09T05:57:25.840Z,63.37
2018-09-09T05:58:30.024Z,63.21
2018-09-09T05:59:34.289Z,62.66
2018-09-09T06:00:38.457Z,63.34
2018-09-09T06:01:42.664Z,63.26
2018-09-09T06:02:46.801Z,62.34
2018-09-09T06:03:50.978Z,63.12
2018-09-09T06:04:55.153Z,63.07
2018-09-09T06:05:59.342Z,62.72
2018-09-09T06:07:03.559Z,62.96
2018-09-09T06:08:07.730Z,62.39
2018-09-09T06:09:12.326Z,62.41
2018-09-09T06:10:16.485Z,62.80
2018-09-09T06:11:20.669Z,62.86
2018-09-09T06:12:25.048Z,62.68
2018-09-09T06:13:29.182Z,62.35
2018-09-09T06:14:33.325Z,62.53
2018-09-09T06:15:37.520Z,62.80
2018-09-09T06:16:41.707Z,62.17
2018-09-09T06:17:46.000Z,62.67
2018-09-09T06:18:50.163Z,62.49
2018-09-09T06:19:54.397Z,61.97
2018-09-09T06:20:58.549Z,61.57
2018-09-09T06:22:02.707Z,61.90
2018-09-09T06:23:07.046Z,61.89
2018-09-09T06:24:11.170Z,61.61
2018-09-09T06:25:15.368Z,62.04
2018-09-09T06:26:19.506Z,62.03
2018-09-09T06:27:23.675Z,61.44
2018-09-09T06:28:28.229Z,61.33
2018-09-09T06:29:32.484Z,61.91
2018-09-09T06:30:36.646Z,61.56
2018-09-09T06:31:40.798Z,61.40
2018-09-09T06:32:44.990Z,61.60
2018-09-09T06:33:49.213Z,62.01
2018-09-09T06:34:53.652Z,61.81
2018-09-09T06:35:57.826Z,61.95
2018-09-09T06:37:02.012Z,61.51
2018-09-09T06:38:06.448Z,62.09
2018-09-09T06:39:11.866Z,62.04
2018-09-09T06:40:16.243Z,62.04
2018-09-09T06:41:20.784Z,61.89
2018-09-09T06:42:24.960Z,62.58
2018-09-09T06:43:29.157Z,62.24
2018-09-09T06:44:33.371Z,61.75
2018-09-09T06:45:37.565Z,61.92
2018-09-09T06:46:41.745Z,62.41
2018-09-09T06:47:45.898Z,62.18
2018-09-09T06:48:50.108Z,62.22
2018-09-09T06:49:54.306Z,61.84
2018-09-09T06:50:58.463Z,61.87
2018-09-09T06:52:02.626Z,61.97
2018-09-09T06:53:07.422Z,62.06
2018-09-09T06:54:11.591Z,61.84
2018-09-09T06:55:16.055Z,61.48
2018-09-09T06:56:20.212Z,61.58
2018-09-09T06:57:24.390Z,61.78
2018-09-09T06:58:31.649Z,61.56
2018-09-09T06:59:36.052Z,61.60
2018-09-09T07:00:40.241Z,61.05
2018-09-09T07:01:44.868Z,61.03
2018-09-09T07:02:49.035Z,61.29
2018-09-09T07:03:53.321Z,61.44
2018-09-09T07:04:57.530Z,61.66
2018-09-09T07:06:01.722Z,60.81
2018-09-09T07:07:06.287Z,61.28
2018-09-09T07:08:10.492Z,61.59
2018-09-09T07:09:14.647Z,61.30
2018-09-09T07:10:18.807Z,61.43
2018-09-09T07:11:23.145Z,60.53
2018-09-09T07:12:27.159Z,60.76
2018-09-09T07:13:31.330Z,60.52
2018-09-09T07:14:35.631Z,60.63
2018-09-09T07:15:39.927Z,60.75
2018-09-09T07:16:44.091Z,60.49
2018-09-09T07:17:48.218Z,60.54
2018-09-09T07:18:52.591Z,60.40
2018-09-09T07:19:56.755Z,60.48
2018-09-09T07:21:00.913Z,60.49
2018-09-09T07:22:05.126Z,60.48
2018-09-09T07:23:09.274Z,60.11
2018-09-09T07:24:13.466Z,61.00
2018-09-09T07:25:17.640Z,60.37
2018-09-09T07:26:21.894Z,60.72
2018-09-09T07:27:26.063Z,60.87
2018-09-09T07:28:30.952Z,60.22
2018-09-09T07:29:35.047Z,59.85
2018-09-09T07:30:39.311Z,60.52
2018-09-09T07:31:43.441Z,60.09
2018-09-09T07:32:54.302Z,60.17
2018-09-09T07:33:58.493Z,60.25
2018-09-09T07:35:02.826Z,59.83
2018-09-09T07:36:07.391Z,59.59
2018-09-09T07:37:11.662Z,59.58
2018-09-09T07:38:15.918Z,59.85
2018-09-09T07:39:20.066Z,60.02
2018-09-09T07:40:24.217Z,60.18
2018-09-09T07:41:28.406Z,60.07
2018-09-09T07:42:32.738Z,59.41
2018-09-09T07:43:36.923Z,58.96
2018-09-09T07:44:41.115Z,59.42
2018-09-09T07:45:45.294Z,58.72
2018-09-09T07:46:49.460Z,58.61
2018-09-09T07:47:53.659Z,58.59
2018-09-09T07:48:57.967Z,58.07
2018-09-09T07:50:02.121Z,58.09
2018-09-09T07:51:06.353Z,57.83
2018-09-09T07:52:10.580Z,57.93
2018-09-09T07:53:14.754Z,58.23
2018-09-09T07:54:18.962Z,58.10
2018-09-09T07:55:23.097Z,57.92
2018-09-09T07:56:27.335Z,58.06
2018-09-09T07:57:31.468Z,58.14
2018-09-09T07:58:35.809Z,58.02
2018-09-09T07:59:39.977Z,57.92
2018-09-09T08:00:44.155Z,57.58
2018-09-09T08:01:48.296Z,57.77
2018-09-09T08:02:52.430Z,57.72
2018-09-09T08:03:56.635Z,57.92
2018-09-09T08:05:00.852Z,57.72
2018-09-09T08:06:05.046Z,56.97
2018-09-09T08:07:09.379Z,56.96
2018-09-09T08:08:13.560Z,57.59
2018-09-09T08:09:17.776Z,57.29
2018-09-09T08:10:21.955Z,57.11
2018-09-09T08:11:31.126Z,56.53
2018-09-09T08:12:35.300Z,56.96
2018-09-09T08:13:39.515Z,56.79
2018-09-09T08:14:43.688Z,56.00
2018-09-09T08:15:47.846Z,56.68
2018-09-09T08:16:52.042Z,56.56
2018-09-09T08:17:56.178Z,56.31
2018-09-09T08:19:00.415Z,56.61
2018-09-09T08:20:04.746Z,55.86
2018-09-09T08:21:08.952Z,56.11
2018-09-09T08:22:13.105Z,55.99
2018-09-09T08:23:17.349Z,55.84
2018-09-09T08:24:21.531Z,56.03
2018-09-09T08:25:25.858Z,55.75
2018-09-09T08:26:30.050Z,55.45
2018-09-09T08:27:34.876Z,54.94
2018-09-09T08:28:39.433Z,54.88
2018-09-09T08:29:43.559Z,55.12
2018-09-09T08:30:47.763Z,54.72
2018-09-09T08:31:51.962Z,55.28
2018-09-09T08:32:56.174Z,54.68
2018-09-09T08:34:00.305Z,55.01
2018-09-09T08:35:04.624Z,54.28
2018-09-09T08:36:08.789Z,54.45
2018-09-09T08:37:13.037Z,54.96
2018-09-09T08:38:17.409Z,54.41
2018-09-09T08:39:21.624Z,54.30
2018-09-09T08:40:25.760Z,55.00
2018-09-09T08:41:29.903Z,54.17
2018-09-09T08:42:34.163Z,54.21
2018-09-09T08:43:38.366Z,54.31
2018-09-09T08:44:42.485Z,54.24
2018-09-09T08:45:46.675Z,54.32
2018-09-09T08:46:50.811Z,54.65
2018-09-09T08:47:54.998Z,54.76
2018-09-09T08:48:59.145Z,54.54
2018-09-09T08:50:03.366Z,54.54
2018-09-09T08:51:07.508Z,54.40
2018-09-09T08:52:12.603Z,54.68
2018-09-09T08:53:16.736Z,54.63
2018-09-09T08:54:20.931Z,53.70
2018-09-09T08:55:25.076Z,54.03
2018-09-09T08:56:29.359Z,54.29
2018-09-09T08:57:33.622Z,53.47
2018-09-09T08:58:37.860Z,53.77
2018-09-09T08:59:42.089Z,53.84
2018-09-09T09:00:46.366Z,53.87
2018-09-09T09:01:50.525Z,53.18
2018-09-09T09:02:54.668Z,53.20
2018-09-09T09:03:58.867Z,52.86
2018-09-09T09:05:03.084Z,52.96
2018-09-09T09:06:07.276Z,52.52
2018-09-09T09:07:11.430Z,53.11
2018-09-09T09:08:15.684Z,52.63
2018-09-09T09:09:19.813Z,53.10
2018-09-09T09:10:24.114Z,52.70
2018-09-09T09:11:28.371Z,52.92
2018-09-09T09:12:32.543Z,52.36
2018-09-09T09:13:36.871Z,52.39
2018-09-09T09:14:42.851Z,52.79
2018-09-09T09:15:46.978Z,52.50
2018-09-09T09:16:51.139Z,52.63
2018-09-09T09:17:55.491Z,52.05
2018-09-09T09:18:59.651Z,52.65
2018-09-09T09:20:03.885Z,52.13
2018-09-09T09:21:08.034Z,51.65
2018-09-09T09:22:12.325Z,51.63
2018-09-09T09:23:16.511Z,51.76
2018-09-09T09:24:20.657Z,51.59
2018-09-09T09:25:24.851Z,51.65
2018-09-09T09:26:29.029Z,52.14
2018-09-09T09:27:33.182Z,51.56
2018-09-09T09:28:37.375Z,52.22
2018-09-09T09:29:59.473Z,51.61
2018-09-09T09:31:03.689Z,51.82
2018-09-09T09:32:07.958Z,51.19
2018-09-09T09:33:12.095Z,51.10
2018-09-09T09:34:16.262Z,50.99
2018-09-09T09:35:20.593Z,51.05
2018-09-09T09:36:24.743Z,51.75
2018-09-09T09:37:28.922Z,51.18
2018-09-09T09:38:33.079Z,51.25
2018-09-09T09:39:37.309Z,51.23
2018-09-09T09:40:41.439Z,51.73
2018-09-09T09:41:45.660Z,51.26
2018-09-09T09:42:50.129Z,51.04
2018-09-09T09:43:54.444Z,51.35
2018-09-09T09:44:58.626Z,51.41
2018-09-09T09:46:02.794Z,51.50
2018-09-09T09:47:07.244Z,51.63
2018-09-09T09:48:11.394Z,51.81
2018-09-09T09:49:15.561Z,51.11
2018-09-09T09:50:19.722Z,51.67
2018-09-09T09:51:23.938Z,51.74
2018-09-09T09:52:28.123Z,51.25
2018-09-09T09:53:33.365Z,51.40
2018-09-09T09:54:37.512Z,51.20
2018-09-09T09:55:41.681Z,51.90
2018-09-09T09:56:45.870Z,51.62
2018-09-09T09:57:50.390Z,51.72
2018-09-09T09:58:54.783Z,51.58
2018-09-09T09:59:59.005Z,51.04
2018-09-09T10:01:03.182Z,51.42
2018-09-09T10:02:07.429Z,51.83
2018-09-09T10:03:12.291Z,51.70
2018-09-09T10:04:16.434Z,51.81
2018-09-09T10:05:20.703Z,51.68
2018-09-09T10:06:24.884Z,51.92
2018-09-09T10:07:29.064Z,51.82
2018-09-09T10:08:33.234Z,51.83
2018-09-09T10:09:37.593Z,52.06
2018-09-09T10:10:41.761Z,52.08
2018-09-09T10:11:45.977Z,52.30
2018-09-09T10:12:50.222Z,52.66
2018-09-09T10:13:54.458Z,52.68
2018-09-09T10:14:58.722Z,52.84
2018-09-09T10:16:03.604Z,52.29
2018-09-09T10:17:08.108Z,52.67
2018-09-09T10:18:12.417Z,52.28
2018-09-09T10:19:16.569Z,52.11
2018-09-09T10:20:20.803Z,52.06
2018-09-09T10:21:25.154Z,51.65
2018-09-09T10:22:29.410Z,51.45
2018-09-09T10:23:33.561Z,51.35
2018-09-09T10:24:37.925Z,51.19
2018-09-09T10:25:42.135Z,50.71
2018-09-09T10:26:46.702Z,50.69
2018-09-09T10:27:50.943Z,50.25
2018-09-09T10:28:55.157Z,50.14
2018-09-09T10:29:59.706Z,50.78
2018-09-09T10:31:04.037Z,50.56
2018-09-09T10:32:08.402Z,50.47
2018-09-09T10:33:12.542Z,49.71
2018-09-09T10:34:16.740Z,49.75
2018-09-09T10:35:20.962Z,49.56
2018-09-09T10:36:28.097Z,49.60
2018-09-09T10:37:32.286Z,49.31
2018-09-09T10:38:36.433Z,49.22
2018-09-09T10:39:40.591Z,49.52
2018-09-09T10:40:44.839Z,49.38
2018-09-09T10:41:49.003Z,49.24
2018-09-09T10:42:53.171Z,49.54
2018-09-09T10:43:57.298Z,48.83
2018-09-09T10:45:01.476Z,48.98
2018-09-09T10:46:05.902Z,48.37
2018-09-09T10:47:10.054Z,48.67
2018-09-09T10:48:14.192Z,48.61
2018-09-09T10:49:18.359Z,48.66
2018-09-09T10:50:22.707Z,48.04
2018-09-09T10:51:26.898Z,48.19
2018-09-09T10:52:31.054Z,48.01
2018-09-09T10:53:35.770Z,47.98
2018-09-09T10:54:40.130Z,47.92
2018-09-09T10:55:44.289Z,47.92
2018-09-09T10:56:48.511Z,47.41
2018-09-09T10:57:52.650Z,47.62
2018-09-09T10:58:56.895Z,47.23
2018-09-09T11:00:00.990Z,47.21
2018-09-09T11:01:05.191Z,47.73
2018-09-09T11:02:09.556Z,47.68
2018-09-09T11:03:13.720Z,47.59
2018-09-09T11:04:17.860Z,47.68
2018-09-09T11:05:22.129Z,46.97
2018-09-09T11:06:26.556Z,47.36
2018-09-09T11:07:30.771Z,47.70
2018-09-09T11:08:34.980Z,47.50
2018-09-09T11:09:39.552Z,46.85
2018-09-09T11:10:44.060Z,47.31
2018-09-09T11:11:48.281Z,46.83
2018-09-09T11:12:52.549Z,47.12
2018-09-09T11:13:56.864Z,46.36
2018-09-09T11:15:02.524Z,46.33
2018-09-09T11:16:07.273Z,46.31
2018-09-09T11:17:11.625Z,46.40
2018-09-09T11:18:15.827Z,46.25
2018-09-09T11:19:19.954Z,46.62
2018-09-09T11:20:24.117Z,46.79
2018-09-09T11:21:28.254Z,46.12
2018-09-09T11:22:32.442Z,46.81
2018-09-09T11:23:36.627Z,46.45
2018-09-09T11:24:40.790Z,46.41
2018-09-09T11:25:44.962Z,46.61
2018-09-09T11:26:49.132Z,46.70
2018-09-09T11:27:53.413Z,46.92
2018-09-09T11:28:57.584Z,46.82
2018-09-09T11:30:02.148Z,46.40
2018-09-09T11:31:06.253Z,46.79
2018-09-09T11:32:10.448Z,46.85
2018-09-09T11:33:14.687Z,46.23
2018-09-09T11:34:18.881Z,46.98
2018-09-09T11:35:23.058Z,46.96
2018-09-09T11:36:27.253Z,46.57
2018-09-09T11:37:31.488Z,46.23
2018-09-09T11:38:35.694Z,45.78
2018-09-09T11:39:39.969Z,45.89
2018-09-09T11:40:44.203Z,45.82
2018-09-09T11:41:48.257Z,46.46
2018-09-09T11:42:52.487Z,46.17
2018-09-09T11:43:56.720Z,45.67
2018-09-09T11:45:00.997Z,45.20
2018-09-09T11:46:05.316Z,45.18
2018-09-09T11:47:09.486Z,44.91
2018-09-09T11:48:13.694Z,45.00
2018-09-09T11:49:17.858Z,44.76
2018-09-09T11:50:22.432Z,45.10
2018-09-09T11:51:26.635Z,45.36
2018-09-09T11:52:31.456Z,45.23
2018-09-09T11:53:35.821Z,45.43
2018-09-09T11:54:40.024Z,45.13
2018-09-09T11:55:44.488Z,44.98
2018-09-09T11:56:48.893Z,45.03
2018-09-09T11:57:53.096Z,45.01
2018-09-09T11:58:58.478Z,44.83
2018-09-09T12:00:02.702Z,44.28
2018-09-09T12:01:07.001Z,44.50
2018-09-09T12:02:11.152Z,44.67
2018-09-09T12:03:15.350Z,44.44
2018-09-09T12:04:19.658Z,43.93
2018-09-09T12:05:23.941Z,43.99
2018-09-09T12:06:28.173Z,44.57
2018-09-09T12:07:32.356Z,43.65
2018-09-09T12:08:36.511Z,44.12
2018-09-09T12:09:40.785Z,44.28
2018-09-09T12:10:44.924Z,44.04
2018-09-09T12:11:49.143Z,43.71
2018-09-09T12:12:53.339Z,43.74
2018-09-09T12:13:57.490Z,43.74
2018-09-09T12:15:01.629Z,43.61
2018-09-09T12:16:05.913Z,42.95
2018-09-09T12:17:10.324Z,43.79
2018-09-09T12:18:14.547Z,43.60
2018-09-09T12:19:18.700Z,42.95
2018-09-09T12:20:22.857Z,42.81
2018-09-09T12:21:27.021Z,42.80
2018-09-09T12:22:31.374Z,43.44
2018-09-09T12:23:35.537Z,43.42
2018-09-09T12:24:39.674Z,43.56
2018-09-09T12:25:43.821Z,43.19
2018-09-09T12:26:47.959Z,43.09
2018-09-09T12:27:52.222Z,43.14
2018-09-09T12:28:56.574Z,42.24
2018-09-09T12:30:00.969Z,42.76
2018-09-09T12:31:05.323Z,42.88
2018-09-09T12:32:09.547Z,42.27
2018-09-09T12:33:13.751Z,42.49
2018-09-09T12:34:18.015Z,42.93
2018-09-09T12:35:22.258Z,42.60
2018-09-09T12:36:26.453Z,42.66
2018-09-09T12:37:30.763Z,42.45
2018-09-09T12:38:34.934Z,42.73
2018-09-09T12:39:39.211Z,42.58
2018-09-09T12:40:43.398Z,42.40
2018-09-09T12:41:47.584Z,42.15
2018-09-09T12:42:57.690Z,41.94
2018-09-09T12:46:14.410Z,42.09
2018-09-09T12:47:24.043Z,41.90
2018-09-09T12:48:33.681Z,42.14
2018-09-09T12:49:37.870Z,41.83
2018-09-09T12:50:42.085Z,42.68
2018-09-09T12:51:46.326Z,42.01
2018-09-09T12:52:50.628Z,42.05
2018-09-09T12:53:54.946Z,41.91
2018-09-09T12:54:59.111Z,42.01
2018-09-09T12:56:03.262Z,42.36
2018-09-09T12:57:07.520Z,42.59
2018-09-09T12:58:11.658Z,41.90
2018-09-09T12:59:15.827Z,42.59
2018-09-09T13:00:20.084Z,42.50
2018-09-09T13:01:24.206Z,42.75
2018-09-09T13:02:28.567Z,41.97
2018-09-09T13:03:32.751Z,42.69
2018-09-09T13:04:37.264Z,42.39
2018-09-09T13:05:41.496Z,42.04
2018-09-09T13:06:45.713Z,42.19
2018-09-09T13:07:49.944Z,41.43
2018-09-09T13:08:54.069Z,41.09
2018-09-09T13:09:58.226Z,41.99
2018-09-09T13:11:02.398Z,41.87
2018-09-09T13:12:06.734Z,41.80
2018-09-09T13:13:18.165Z,40.96
2018-09-09T13:14:22.380Z,41.13
2018-09-09T13:15:26.515Z,41.37
2018-09-09T13:16:30.723Z,41.58
2018-09-09T13:17:34.861Z,40.98
2018-09-09T13:18:39.022Z,41.02
2018-09-09T13:19:43.167Z,40.96
2018-09-09T13:20:47.355Z,41.30
2018-09-09T13:21:51.548Z,41.52
2018-09-09T13:22:56.022Z,41.51
2018-09-09T13:24:00.263Z,41.96
2018-09-09T13:25:04.455Z,41.93
2018-09-09T13:26:08.632Z,41.15
2018-09-09T13:27:12.762Z,41.20
2018-09-09T13:28:17.149Z,41.49
2018-09-09T13:29:21.356Z,41.70
2018-09-09T13:30:25.645Z,40.97
2018-09-09T13:31:29.810Z,41.16
2018-09-09T13:32:33.980Z,41.23
2018-09-09T13:33:38.201Z,41.64
2018-09-09T13:34:42.402Z,41.80
2018-09-09T13:35:46.734Z,41.32
2018-09-09T13:36:50.996Z,42.23
2018-09-09T13:37:55.183Z,42.16
2018-09-09T13:38:59.405Z,41.35
2018-09-09T13:40:03.642Z,42.07
2018-09-09T13:41:07.830Z,41.89
2018-09-09T13:42:11.995Z,41.09
2018-09-09T13:43:16.226Z,42.08
2018-09-09T13:44:20.377Z,41.37
2018-09-09T13:45:24.596Z,41.47
2018-09-09T13:46:28.799Z,41.42
2018-09-09T13:47:33.047Z,41.47
2018-09-09T13:48:37.216Z,41.68
2018-09-09T13:49:41.539Z,41.54
2018-09-09T13:50:45.746Z,41.90